sensor_id;sensor_type;location;lat;lon;timestamp;pressure;altitude;pressure_sealevel;temperature
74750;BMP280;63269;53.330;-6.288;2023-01-29T00:01:04;102832.41;;;20.37
74750;BMP280;63269;53.330;-6.288;2023-01-29T00:03:30;102824.06;;;20.35
74750;BMP280;63269;53.330;-6.288;2023-01-29T00:05:55;102816.06;;;20.35
74750;BMP280;63269;53.330;-6.288;2023-01-29T00:08:21;102814.16;;;20.35
74750;BMP280;63269;53.330;-6.288;2023-01-29T00:10:46;102811.09;;;20.33
74750;BMP280;63269;53.330;-6.288;2023-01-29T00:13:12;102815.66;;;20.33
74750;BMP280;63269;53.330;-6.288;2023-01-29T00:15:37;102816.44;;;20.33
74750;BMP280;63269;53.330;-6.288;2023-01-29T00:18:03;102813.78;;;20.33
74750;BMP280;63269;53.330;-6.288;2023-01-29T00:20:29;102812.22;;;20.32
74750;BMP280;63269;53.330;-6.288;2023-01-29T00:22:54;102818.72;;;20.31
74750;BMP280;63269;53.330;-6.288;2023-01-29T00:25:20;102819.09;;;20.30
74750;BMP280;63269;53.330;-6.288;2023-01-29T00:27:45;102811.09;;;20.30
74750;BMP280;63269;53.330;-6.288;2023-01-29T00:30:11;102811.47;;;20.28
74750;BMP280;63269;53.330;-6.288;2023-01-29T00:32:40;102807.69;;;20.29
74750;BMP280;63269;53.330;-6.288;2023-01-29T00:35:07;102817.94;;;20.27
74750;BMP280;63269;53.330;-6.288;2023-01-29T00:37:32;102824.03;;;20.28
74750;BMP280;63269;53.330;-6.288;2023-01-29T00:39:58;102820.63;;;20.27
74750;BMP280;63269;53.330;-6.288;2023-01-29T00:42:23;102823.66;;;20.26
74750;BMP280;63269;53.330;-6.288;2023-01-29T00:45:09;102821.34;;;20.24
74750;BMP280;63269;53.330;-6.288;2023-01-29T00:47:34;102821.34;;;20.24
74750;BMP280;63269;53.330;-6.288;2023-01-29T00:50:02;102817.16;;;20.23
74750;BMP280;63269;53.330;-6.288;2023-01-29T00:52:29;102827.09;;;20.23
74750;BMP280;63269;53.330;-6.288;2023-01-29T00:54:56;102829.00;;;20.22
74750;BMP280;63269;53.330;-6.288;2023-01-29T00:57:23;102820.22;;;20.22
74750;BMP280;63269;53.330;-6.288;2023-01-29T00:59:49;102816.78;;;20.21
74750;BMP280;63269;53.330;-6.288;2023-01-29T01:02:15;102808.78;;;20.21
74750;BMP280;63269;53.330;-6.288;2023-01-29T01:04:59;102808.38;;;20.19
74750;BMP280;63269;53.330;-6.288;2023-01-29T01:07:26;102803.03;;;20.19
74750;BMP280;63269;53.330;-6.288;2023-01-29T01:09:52;102795.06;;;20.19
74750;BMP280;63269;53.330;-6.288;2023-01-29T01:13:00;102795.06;;;20.19
74750;BMP280;63269;53.330;-6.288;2023-01-29T01:15:29;102789.00;;;20.18
74750;BMP280;63269;53.330;-6.288;2023-01-29T01:17:56;102792.03;;;20.17
74750;BMP280;63269;53.330;-6.288;2023-01-29T01:20:23;102792.81;;;20.14
74750;BMP280;63269;53.330;-6.288;2023-01-29T01:22:49;102788.94;;;20.15
74750;BMP280;63269;53.330;-6.288;2023-01-29T01:25:15;102788.94;;;20.15
74750;BMP280;63269;53.330;-6.288;2023-01-29T01:27:41;102782.88;;;20.14
74750;BMP280;63269;53.330;-6.288;2023-01-29T01:30:09;102784.81;;;20.14
74750;BMP280;63269;53.330;-6.288;2023-01-29T01:32:35;102777.19;;;20.12
74750;BMP280;63269;53.330;-6.288;2023-01-29T01:35:01;102779.84;;;20.12
74750;BMP280;63269;53.330;-6.288;2023-01-29T01:37:26;102768.00;;;20.10
74750;BMP280;63269;53.330;-6.288;2023-01-29T01:39:52;102769.91;;;20.09
74750;BMP280;63269;53.330;-6.288;2023-01-29T01:42:22;102762.66;;;20.06
74750;BMP280;63269;53.330;-6.288;2023-01-29T01:44:59;102756.97;;;20.04
74750;BMP280;63269;53.330;-6.288;2023-01-29T01:47:40;102763.44;;;20.03
74750;BMP280;63269;53.330;-6.288;2023-01-29T01:50:32;102758.47;;;20.02
74750;BMP280;63269;53.330;-6.288;2023-01-29T01:53:06;102756.22;;;20.00
74750;BMP280;63269;53.330;-6.288;2023-01-29T01:55:34;102749.34;;;19.99
74750;BMP280;63269;53.330;-6.288;2023-01-29T01:58:13;102749.34;;;19.99
74750;BMP280;63269;53.330;-6.288;2023-01-29T02:00:40;102755.03;;;19.97
74750;BMP280;63269;53.330;-6.288;2023-01-29T02:03:07;102752.78;;;19.96
74750;BMP280;63269;53.330;-6.288;2023-01-29T02:05:54;102764.94;;;19.93
74750;BMP280;63269;53.330;-6.288;2023-01-29T02:08:46;102764.94;;;19.93
74750;BMP280;63269;53.330;-6.288;2023-01-29T02:11:32;102761.91;;;19.91
74750;BMP280;63269;53.330;-6.288;2023-01-29T02:13:58;102758.44;;;19.91
74750;BMP280;63269;53.330;-6.288;2023-01-29T02:16:23;102771.00;;;19.90
74750;BMP280;63269;53.330;-6.288;2023-01-29T02:18:49;102766.81;;;19.89
74750;BMP280;63269;53.330;-6.288;2023-01-29T02:21:40;102766.81;;;19.89
74750;BMP280;63269;53.330;-6.288;2023-01-29T02:27:09;102750.84;;;19.86
74750;BMP280;63269;53.330;-6.288;2023-01-29T02:29:57;102750.84;;;19.86
74750;BMP280;63269;53.330;-6.288;2023-01-29T02:32:48;102750.81;;;19.82
74750;BMP280;63269;53.330;-6.288;2023-01-29T02:35:34;102743.97;;;19.81
74750;BMP280;63269;53.330;-6.288;2023-01-29T02:38:28;102734.84;;;19.79
74750;BMP280;63269;53.330;-6.288;2023-01-29T02:43:45;102730.66;;;19.77
74750;BMP280;63269;53.330;-6.288;2023-01-29T02:46:29;102710.06;;;19.74
74750;BMP280;63269;53.330;-6.288;2023-01-29T02:57:09;102700.94;;;19.68
74750;BMP280;63269;53.330;-6.288;2023-01-29T03:02:40;102695.59;;;19.68
74750;BMP280;63269;53.330;-6.288;2023-01-29T03:05:10;102686.88;;;19.64
74750;BMP280;63269;53.330;-6.288;2023-01-29T03:07:37;102686.88;;;19.64
74750;BMP280;63269;53.330;-6.288;2023-01-29T03:10:12;102691.78;;;19.62
74750;BMP280;63269;53.330;-6.288;2023-01-29T03:12:40;102691.78;;;19.62
74750;BMP280;63269;53.330;-6.288;2023-01-29T03:15:19;102675.03;;;19.62
74750;BMP280;63269;53.330;-6.288;2023-01-29T03:17:55;102679.97;;;19.60
74750;BMP280;63269;53.330;-6.288;2023-01-29T03:20:25;102679.97;;;19.60
74750;BMP280;63269;53.330;-6.288;2023-01-29T03:22:59;102682.66;;;19.60
74750;BMP280;63269;53.330;-6.288;2023-01-29T03:25:27;102666.66;;;19.60
74750;BMP280;63269;53.330;-6.288;2023-01-29T03:28:14;102671.59;;;19.57
74750;BMP280;63269;53.330;-6.288;2023-01-29T03:31:07;102662.88;;;19.57
74750;BMP280;63269;53.330;-6.288;2023-01-29T03:36:36;102662.06;;;19.56
74750;BMP280;63269;53.330;-6.288;2023-01-29T03:39:08;102657.16;;;19.55
74750;BMP280;63269;53.330;-6.288;2023-01-29T03:41:48;102665.13;;;19.55
74750;BMP280;63269;53.330;-6.288;2023-01-29T03:47:21;102649.19;;;19.51
74750;BMP280;63269;53.330;-6.288;2023-01-29T03:58:18;102638.13;;;19.49
74750;BMP280;63269;53.330;-6.288;2023-01-29T04:00:52;102635.09;;;19.47
74750;BMP280;63269;53.330;-6.288;2023-01-29T04:03:29;102625.94;;;19.48
74750;BMP280;63269;53.330;-6.288;2023-01-29T04:06:05;102616.81;;;19.46
74750;BMP280;63269;53.330;-6.288;2023-01-29T04:08:39;102609.19;;;19.44
74750;BMP280;63269;53.330;-6.288;2023-01-29T04:11:12;102609.19;;;19.44
74750;BMP280;63269;53.330;-6.288;2023-01-29T04:13:38;102604.66;;;19.45
74750;BMP280;63269;53.330;-6.288;2023-01-29T04:16:06;102599.69;;;19.43
74750;BMP280;63269;53.330;-6.288;2023-01-29T04:18:34;102599.69;;;19.43
74750;BMP280;63269;53.330;-6.288;2023-01-29T04:21:00;102589.44;;;19.49
74750;BMP280;63269;53.330;-6.288;2023-01-29T04:23:26;102596.28;;;19.53
74750;BMP280;63269;53.330;-6.288;2023-01-29T04:28:44;102589.84;;;19.62
74750;BMP280;63269;53.330;-6.288;2023-01-29T04:31:13;102584.91;;;19.64
74750;BMP280;63269;53.330;-6.288;2023-01-29T04:36:42;102586.78;;;19.67
74750;BMP280;63269;53.330;-6.288;2023-01-29T04:39:55;102582.22;;;19.71
74750;BMP280;63269;53.330;-6.288;2023-01-29T04:42:35;102581.50;;;19.74
74750;BMP280;63269;53.330;-6.288;2023-01-29T04:45:16;102581.50;;;19.74
74750;BMP280;63269;53.330;-6.288;2023-01-29T04:47:51;102579.19;;;19.80
74750;BMP280;63269;53.330;-6.288;2023-01-29T04:50:27;102571.97;;;19.84
74750;BMP280;63269;53.330;-6.288;2023-01-29T04:55:44;102562.84;;;19.85
74750;BMP280;63269;53.330;-6.288;2023-01-29T05:00:41;102563.59;;;19.89
74750;BMP280;63269;53.330;-6.288;2023-01-29T05:03:08;102567.78;;;19.93
74750;BMP280;63269;53.330;-6.288;2023-01-29T05:05:39;102578.09;;;19.98
74750;BMP280;63269;53.330;-6.288;2023-01-29T05:08:06;102578.09;;;19.98
74750;BMP280;63269;53.330;-6.288;2023-01-29T05:10:32;102565.50;;;19.99
74750;BMP280;63269;53.330;-6.288;2023-01-29T05:13:00;102564.75;;;20.02
74750;BMP280;63269;53.330;-6.288;2023-01-29T05:15:35;102574.66;;;20.09
74750;BMP280;63269;53.330;-6.288;2023-01-29T05:18:01;102574.66;;;20.09
74750;BMP280;63269;53.330;-6.288;2023-01-29T05:20:31;102562.47;;;20.08
74750;BMP280;63269;53.330;-6.288;2023-01-29T05:22:57;102549.53;;;20.13
74750;BMP280;63269;53.330;-6.288;2023-01-29T05:25:29;102549.53;;;20.13
74750;BMP280;63269;53.330;-6.288;2023-01-29T05:27:55;102545.69;;;20.14
74750;BMP280;63269;53.330;-6.288;2023-01-29T05:30:38;102547.22;;;20.15
74750;BMP280;63269;53.330;-6.288;2023-01-29T05:33:12;102544.19;;;20.17
74750;BMP280;63269;53.330;-6.288;2023-01-29T05:35:38;102530.50;;;20.18
74750;BMP280;63269;53.330;-6.288;2023-01-29T05:38:03;102539.63;;;20.21
74750;BMP280;63269;53.330;-6.288;2023-01-29T05:40:29;102539.63;;;20.21
74750;BMP280;63269;53.330;-6.288;2023-01-29T05:42:54;102528.59;;;20.23
74750;BMP280;63269;53.330;-6.288;2023-01-29T05:45:20;102535.41;;;20.24
74750;BMP280;63269;53.330;-6.288;2023-01-29T05:47:45;102533.50;;;20.28
74750;BMP280;63269;53.330;-6.288;2023-01-29T05:50:12;102533.50;;;20.28
74750;BMP280;63269;53.330;-6.288;2023-01-29T05:52:38;102528.19;;;20.28
74750;BMP280;63269;53.330;-6.288;2023-01-29T05:55:04;102519.44;;;20.31
74750;BMP280;63269;53.330;-6.288;2023-01-29T05:57:29;102519.44;;;20.31
74750;BMP280;63269;53.330;-6.288;2023-01-29T05:59:55;102526.66;;;20.30
74750;BMP280;63269;53.330;-6.288;2023-01-29T06:02:20;102529.69;;;20.32
74750;BMP280;63269;53.330;-6.288;2023-01-29T06:04:46;102521.31;;;20.34
74750;BMP280;63269;53.330;-6.288;2023-01-29T06:07:11;102521.31;;;20.34
74750;BMP280;63269;53.330;-6.288;2023-01-29T06:09:37;102520.19;;;20.35
74750;BMP280;63269;53.330;-6.288;2023-01-29T06:12:02;102525.09;;;20.36
74750;BMP280;63269;53.330;-6.288;2023-01-29T06:14:30;102511.41;;;20.38
74750;BMP280;63269;53.330;-6.288;2023-01-29T06:16:55;102511.41;;;20.38
74750;BMP280;63269;53.330;-6.288;2023-01-29T06:19:21;102512.16;;;20.38
74750;BMP280;63269;53.330;-6.288;2023-01-29T06:21:46;102516.69;;;20.42
74750;BMP280;63269;53.330;-6.288;2023-01-29T06:24:12;102516.69;;;20.42
74750;BMP280;63269;53.330;-6.288;2023-01-29T06:26:37;102511.38;;;20.42
74750;BMP280;63269;53.330;-6.288;2023-01-29T06:29:03;102516.69;;;20.42
74750;BMP280;63269;53.330;-6.288;2023-01-29T06:31:28;102517.09;;;20.44
74750;BMP280;63269;53.330;-6.288;2023-01-29T06:33:53;102509.09;;;20.44
74750;BMP280;63269;53.330;-6.288;2023-01-29T06:36:19;102514.78;;;20.46
74750;BMP280;63269;53.330;-6.288;2023-01-29T06:38:44;102514.78;;;20.46
74750;BMP280;63269;53.330;-6.288;2023-01-29T06:41:12;102501.84;;;20.44
74750;BMP280;63269;53.330;-6.288;2023-01-29T06:43:38;102503.75;;;20.47
74750;BMP280;63269;53.330;-6.288;2023-01-29T06:46:06;102503.75;;;20.47
74750;BMP280;63269;53.330;-6.288;2023-01-29T06:48:31;102506.03;;;20.49
74750;BMP280;63269;53.330;-6.288;2023-01-29T06:51:04;102500.69;;;20.49
74750;BMP280;63269;53.330;-6.288;2023-01-29T06:53:31;102500.69;;;20.49
74750;BMP280;63269;53.330;-6.288;2023-01-29T06:55:57;102501.44;;;20.49
74750;BMP280;63269;53.330;-6.288;2023-01-29T06:58:22;102495.72;;;20.51
74750;BMP280;63269;53.330;-6.288;2023-01-29T07:00:47;102495.72;;;20.51
74750;BMP280;63269;53.330;-6.288;2023-01-29T07:03:13;102490.03;;;20.52
74750;BMP280;63269;53.330;-6.288;2023-01-29T07:05:38;102493.03;;;20.54
74750;BMP280;63269;53.330;-6.288;2023-01-29T07:08:04;102490.38;;;20.54
74750;BMP280;63269;53.330;-6.288;2023-01-29T07:10:30;102490.38;;;20.54
74750;BMP280;63269;53.330;-6.288;2023-01-29T07:12:57;102486.59;;;20.52
74750;BMP280;63269;53.330;-6.288;2023-01-29T07:15:23;102485.44;;;20.56
74750;BMP280;63269;53.330;-6.288;2023-01-29T07:17:59;102485.44;;;20.56
74750;BMP280;63269;53.330;-6.288;2023-01-29T07:20:28;102475.53;;;20.57
74750;BMP280;63269;53.330;-6.288;2023-01-29T07:22:55;102472.84;;;20.57
74750;BMP280;63269;53.330;-6.288;2023-01-29T07:25:21;102472.84;;;20.57
74750;BMP280;63269;53.330;-6.288;2023-01-29T07:27:47;102467.53;;;20.57
74750;BMP280;63269;53.330;-6.288;2023-01-29T07:30:13;102464.44;;;20.58
74750;BMP280;63269;53.330;-6.288;2023-01-29T07:32:38;102464.44;;;20.58
74750;BMP280;63269;53.330;-6.288;2023-01-29T07:35:04;102461.41;;;20.60
74750;BMP280;63269;53.330;-6.288;2023-01-29T07:37:30;102461.41;;;20.60
74750;BMP280;63269;53.330;-6.288;2023-01-29T07:39:55;102467.13;;;20.58
74750;BMP280;63269;53.330;-6.288;2023-01-29T07:42:20;102459.91;;;20.59
74750;BMP280;63269;53.330;-6.288;2023-01-29T07:44:46;102458.75;;;20.60
74750;BMP280;63269;53.330;-6.288;2023-01-29T07:47:11;102459.53;;;20.61
74750;BMP280;63269;53.330;-6.288;2023-01-29T07:49:37;102457.59;;;20.61
74750;BMP280;63269;53.330;-6.288;2023-01-29T07:52:02;102453.78;;;20.62
74750;BMP280;63269;53.330;-6.288;2023-01-29T07:54:28;102452.63;;;20.63
74750;BMP280;63269;53.330;-6.288;2023-01-29T07:56:53;102451.09;;;20.62
74750;BMP280;63269;53.330;-6.288;2023-01-29T07:59:18;102448.06;;;20.64
74750;BMP280;63269;53.330;-6.288;2023-01-29T08:01:44;102440.06;;;20.64
74750;BMP280;63269;53.330;-6.288;2023-01-29T08:04:09;102450.72;;;20.64
74750;BMP280;63269;53.330;-6.288;2023-01-29T08:06:35;102445.00;;;20.65
74750;BMP280;63269;53.330;-6.288;2023-01-29T08:09:00;102439.69;;;20.65
74750;BMP280;63269;53.330;-6.288;2023-01-29T08:11:26;102433.19;;;20.66
74750;BMP280;63269;53.330;-6.288;2023-01-29T08:13:51;102432.03;;;20.67
74750;BMP280;63269;53.330;-6.288;2023-01-29T08:16:18;102440.81;;;20.68
74750;BMP280;63269;53.330;-6.288;2023-01-29T08:18:43;102438.88;;;20.68
74750;BMP280;63269;53.330;-6.288;2023-01-29T08:21:12;102449.94;;;20.70
74750;BMP280;63269;53.330;-6.288;2023-01-29T08:23:37;102438.50;;;20.70
74750;BMP280;63269;53.330;-6.288;2023-01-29T08:26:03;102439.25;;;20.70
74750;BMP280;63269;53.330;-6.288;2023-01-29T08:28:29;102447.25;;;20.70
74750;BMP280;63269;53.330;-6.288;2023-01-29T08:30:54;102456.75;;;20.71
74750;BMP280;63269;53.330;-6.288;2023-01-29T08:33:20;102456.75;;;20.71
74750;BMP280;63269;53.330;-6.288;2023-01-29T08:35:49;102447.25;;;20.70
74750;BMP280;63269;53.330;-6.288;2023-01-29T08:38:15;102446.88;;;20.72
74750;BMP280;63269;53.330;-6.288;2023-01-29T08:40:41;102446.88;;;20.72
74750;BMP280;63269;53.330;-6.288;2023-01-29T08:43:07;102452.19;;;20.75
74750;BMP280;63269;53.330;-6.288;2023-01-29T08:45:35;102457.13;;;20.77
74750;BMP280;63269;53.330;-6.288;2023-01-29T08:48:01;102450.66;;;20.78
74750;BMP280;63269;53.330;-6.288;2023-01-29T08:50:27;102449.91;;;20.77
74750;BMP280;63269;53.330;-6.288;2023-01-29T08:52:58;102456.34;;;20.80
74750;BMP280;63269;53.330;-6.288;2023-01-29T08:55:25;102461.66;;;20.80
74750;BMP280;63269;53.330;-6.288;2023-01-29T08:57:51;102452.16;;;20.79
74750;BMP280;63269;53.330;-6.288;2023-01-29T09:00:16;102455.19;;;20.81
74750;BMP280;63269;53.330;-6.288;2023-01-29T09:02:42;102455.97;;;20.82
74750;BMP280;63269;53.330;-6.288;2023-01-29T09:05:08;102453.31;;;20.82
74750;BMP280;63269;53.330;-6.288;2023-01-29T09:07:34;102441.47;;;20.83
74750;BMP280;63269;53.330;-6.288;2023-01-29T09:10:00;102450.25;;;20.83
74750;BMP280;63269;53.330;-6.288;2023-01-29T09:12:26;102450.25;;;20.83
74750;BMP280;63269;53.330;-6.288;2023-01-29T09:14:51;102442.97;;;20.84
74750;BMP280;63269;53.330;-6.288;2023-01-29T09:17:16;102442.97;;;20.84
74750;BMP280;63269;53.330;-6.288;2023-01-29T09:19:42;102449.84;;;20.85
74750;BMP280;63269;53.330;-6.288;2023-01-29T09:22:07;102449.84;;;20.85
74750;BMP280;63269;53.330;-6.288;2023-01-29T09:24:33;102442.22;;;20.87
74750;BMP280;63269;53.330;-6.288;2023-01-29T09:26:59;102449.06;;;20.88
74750;BMP280;63269;53.330;-6.288;2023-01-29T09:29:25;102456.28;;;20.91
74750;BMP280;63269;53.330;-6.288;2023-01-29T09:31:50;102455.13;;;20.92
74750;BMP280;63269;53.330;-6.288;2023-01-29T09:34:16;102458.53;;;20.92
74750;BMP280;63269;53.330;-6.288;2023-01-29T09:36:41;102457.78;;;20.92
74750;BMP280;63269;53.330;-6.288;2023-01-29T09:39:07;102449.78;;;20.92
74750;BMP280;63269;53.330;-6.288;2023-01-29T09:44:32;102456.69;;;20.89
74750;BMP280;63269;53.330;-6.288;2023-01-29T09:47:03;102459.72;;;20.88
74750;BMP280;63269;53.330;-6.288;2023-01-29T09:49:35;102455.56;;;20.87
74750;BMP280;63269;53.330;-6.288;2023-01-29T09:52:14;102453.28;;;20.85
74750;BMP280;63269;53.330;-6.288;2023-01-29T09:57:16;102457.88;;;20.81
74750;BMP280;63269;53.330;-6.288;2023-01-29T09:59:43;102456.34;;;20.80
74750;BMP280;63269;53.330;-6.288;2023-01-29T10:07:45;102454.50;;;20.70
74750;BMP280;63269;53.330;-6.288;2023-01-29T10:10:50;102468.59;;;20.70
74750;BMP280;63269;53.330;-6.288;2023-01-29T10:22:06;102451.47;;;20.64
74750;BMP280;63269;53.330;-6.288;2023-01-29T10:24:49;102455.31;;;20.63
74750;BMP280;63269;53.330;-6.288;2023-01-29T10:27:17;102448.06;;;20.60
74750;BMP280;63269;53.330;-6.288;2023-01-29T10:29:44;102438.56;;;20.59
74750;BMP280;63269;53.330;-6.288;2023-01-29T10:32:15;102443.13;;;20.58
74750;BMP280;63269;53.330;-6.288;2023-01-29T10:34:48;102437.03;;;20.58
74750;BMP280;63269;53.330;-6.288;2023-01-29T10:37:21;102437.44;;;20.56
74750;BMP280;63269;53.330;-6.288;2023-01-29T10:39:49;102438.97;;;20.54
74750;BMP280;63269;53.330;-6.288;2023-01-29T10:45:11;102426.78;;;20.53
74750;BMP280;63269;53.330;-6.288;2023-01-29T10:58:56;102408.13;;;20.56
74750;BMP280;63269;53.330;-6.288;2023-01-29T11:01:23;102391.72;;;20.58
74750;BMP280;63269;53.330;-6.288;2023-01-29T11:04:00;102393.59;;;20.61
74750;BMP280;63269;53.330;-6.288;2023-01-29T11:06:30;102394.72;;;20.64
74750;BMP280;63269;53.330;-6.288;2023-01-29T11:09:07;102397.75;;;20.66
74750;BMP280;63269;53.330;-6.288;2023-01-29T11:12:18;102395.88;;;20.63
74750;BMP280;63269;53.330;-6.288;2023-01-29T11:14:27;102395.84;;;20.66
74750;BMP280;63269;53.330;-6.288;2023-01-29T11:16:54;102392.78;;;20.68
74750;BMP280;63269;53.330;-6.288;2023-01-29T11:19:37;102385.91;;;20.70
74750;BMP280;63269;53.330;-6.288;2023-01-29T11:22:02;102369.53;;;20.72
74750;BMP280;63269;53.330;-6.288;2023-01-29T11:24:28;102372.19;;;20.72
74750;BMP280;63269;53.330;-6.288;2023-01-29T11:26:57;102367.97;;;20.74
74750;BMP280;63269;53.330;-6.288;2023-01-29T11:31:56;102347.78;;;20.77
74750;BMP280;63269;53.330;-6.288;2023-01-29T11:34:22;102345.88;;;20.77
74750;BMP280;63269;53.330;-6.288;2023-01-29T11:37:02;102342.03;;;20.78
74750;BMP280;63269;53.330;-6.288;2023-01-29T11:39:30;102343.56;;;20.79
74750;BMP280;63269;53.330;-6.288;2023-01-29T11:42:01;102343.94;;;20.82
74750;BMP280;63269;53.330;-6.288;2023-01-29T11:44:34;102346.63;;;20.82
74750;BMP280;63269;53.330;-6.288;2023-01-29T11:49:49;102326.38;;;20.84
74750;BMP280;63269;53.330;-6.288;2023-01-29T11:52:32;102324.09;;;20.86
74750;BMP280;63269;53.330;-6.288;2023-01-29T11:55:02;102316.09;;;20.86
74750;BMP280;63269;53.330;-6.288;2023-01-29T11:57:35;102299.28;;;20.89
74750;BMP280;63269;53.330;-6.288;2023-01-29T12:00:04;102295.47;;;20.90
74750;BMP280;63269;53.330;-6.288;2023-01-29T12:02:35;102288.22;;;20.91
74750;BMP280;63269;53.330;-6.288;2023-01-29T12:05:16;102280.97;;;20.91
74750;BMP280;63269;53.330;-6.288;2023-01-29T12:07:45;102284.38;;;20.92
74750;BMP280;63269;53.330;-6.288;2023-01-29T12:10:40;102278.66;;;20.93
74750;BMP280;63269;53.330;-6.288;2023-01-29T12:15:41;102266.84;;;20.94
74750;BMP280;63269;53.330;-6.288;2023-01-29T12:18:29;102251.94;;;20.97
74750;BMP280;63269;53.330;-6.288;2023-01-29T12:21:00;102245.84;;;20.96
74750;BMP280;63269;53.330;-6.288;2023-01-29T12:26:51;102231.38;;;20.97
74750;BMP280;63269;53.330;-6.288;2023-01-29T12:32:48;102206.97;;;20.99
74750;BMP280;63269;53.330;-6.288;2023-01-29T12:35:18;102202.78;;;20.98
74750;BMP280;63269;53.330;-6.288;2023-01-29T12:38:07;102200.09;;;20.98
74750;BMP280;63269;53.330;-6.288;2023-01-29T12:41:00;102187.16;;;20.96
74750;BMP280;63269;53.330;-6.288;2023-01-29T12:46:02;102178.75;;;20.98
74750;BMP280;63269;53.330;-6.288;2023-01-29T12:48:33;102186.38;;;20.99
74750;BMP280;63269;53.330;-6.288;2023-01-29T12:51:18;102175.28;;;21.01
74750;BMP280;63269;53.330;-6.288;2023-01-29T12:53:52;102166.13;;;21.02
74750;BMP280;63269;53.330;-6.288;2023-01-29T12:56:28;102163.06;;;21.04
74750;BMP280;63269;53.330;-6.288;2023-01-29T12:58:55;102166.53;;;21.04
74750;BMP280;63269;53.330;-6.288;2023-01-29T13:01:27;102160.00;;;21.05
74750;BMP280;63269;53.330;-6.288;2023-01-29T13:04:10;102169.13;;;21.08
74750;BMP280;63269;53.330;-6.288;2023-01-29T13:06:45;102142.44;;;21.08
74750;BMP280;63269;53.330;-6.288;2023-01-29T13:09:16;102152.69;;;21.09
74750;BMP280;63269;53.330;-6.288;2023-01-29T13:14:21;102131.75;;;21.11
74750;BMP280;63269;53.330;-6.288;2023-01-29T13:16:51;102129.81;;;21.12
74750;BMP280;63269;53.330;-6.288;2023-01-29T13:19:30;102119.91;;;21.12
74750;BMP280;63269;53.330;-6.288;2023-01-29T13:21:59;102113.81;;;21.12
74750;BMP280;63269;53.330;-6.288;2023-01-29T13:24:32;102097.38;;;21.13
74750;BMP280;63269;53.330;-6.288;2023-01-29T13:26:59;102098.13;;;21.14
74750;BMP280;63269;53.330;-6.288;2023-01-29T13:29:27;102091.66;;;21.15
74750;BMP280;63269;53.330;-6.288;2023-01-29T13:31:54;102095.06;;;21.15
74750;BMP280;63269;53.330;-6.288;2023-01-29T13:36:48;102077.16;;;21.16
74750;BMP280;63269;53.330;-6.288;2023-01-29T13:39:35;102073.31;;;21.17
74750;BMP280;63269;53.330;-6.288;2023-01-29T13:42:37;102072.16;;;21.18
74750;BMP280;63269;53.330;-6.288;2023-01-29T13:45:06;102090.84;;;21.18
74750;BMP280;63269;53.330;-6.288;2023-01-29T13:47:35;102079.41;;;21.17
74750;BMP280;63269;53.330;-6.288;2023-01-29T13:50:16;102066.41;;;21.19
74750;BMP280;63269;53.330;-6.288;2023-01-29T13:52:45;102055.00;;;21.19
74750;BMP280;63269;53.330;-6.288;2023-01-29T14:07:58;102024.50;;;21.20
74750;BMP280;63269;53.330;-6.288;2023-01-29T14:10:24;102026.78;;;21.18
74750;BMP280;63269;53.330;-6.288;2023-01-29T14:12:54;102032.09;;;21.22
74750;BMP280;63269;53.330;-6.288;2023-01-29T14:15:39;102003.91;;;21.20
74750;BMP280;63269;53.330;-6.288;2023-01-29T14:18:19;101983.66;;;21.23
74750;BMP280;63269;53.330;-6.288;2023-01-29T14:20:58;101976.38;;;21.24
74750;BMP280;63269;53.330;-6.288;2023-01-29T14:23:41;101971.06;;;21.24
74750;BMP280;63269;53.330;-6.288;2023-01-29T14:34:35;101940.13;;;21.26
74750;BMP280;63269;53.330;-6.288;2023-01-29T14:42:36;101921.03;;;21.28
74750;BMP280;63269;53.330;-6.288;2023-01-29T14:50:48;101940.06;;;21.30
74750;BMP280;63269;53.330;-6.288;2023-01-29T14:52:50;101927.91;;;21.29
74750;BMP280;63269;53.330;-6.288;2023-01-29T14:55:27;101921.81;;;21.28
74750;BMP280;63269;53.330;-6.288;2023-01-29T14:57:55;101932.06;;;21.30
74750;BMP280;63269;53.330;-6.288;2023-01-29T15:00:26;101942.34;;;21.31
74750;BMP280;63269;53.330;-6.288;2023-01-29T15:02:53;101946.91;;;21.31
74750;BMP280;63269;53.330;-6.288;2023-01-29T15:05:26;101955.69;;;21.31
74750;BMP280;63269;53.330;-6.288;2023-01-29T15:16:34;101936.22;;;21.31
74750;BMP280;63269;53.330;-6.288;2023-01-29T15:19:12;101936.22;;;21.31
74750;BMP280;63269;53.330;-6.288;2023-01-29T15:22:03;101936.66;;;21.29
74750;BMP280;63269;53.330;-6.288;2023-01-29T15:24:29;101936.66;;;21.29
74750;BMP280;63269;53.330;-6.288;2023-01-29T15:26:55;101930.19;;;21.27
74750;BMP280;63269;53.330;-6.288;2023-01-29T15:29:24;101930.56;;;21.29
74750;BMP280;63269;53.330;-6.288;2023-01-29T15:31:50;101922.88;;;21.31
74750;BMP280;63269;53.330;-6.288;2023-01-29T15:34:15;101925.56;;;21.31
74750;BMP280;63269;53.330;-6.288;2023-01-29T15:36:41;101935.09;;;21.32
74750;BMP280;63269;53.330;-6.288;2023-01-29T15:39:18;101945.75;;;21.32
74750;BMP280;63269;53.330;-6.288;2023-01-29T15:41:44;101957.97;;;21.33
74750;BMP280;63269;53.330;-6.288;2023-01-29T15:44:13;101948.03;;;21.33
74750;BMP280;63269;53.330;-6.288;2023-01-29T15:47:01;101951.81;;;21.36
74750;BMP280;63269;53.330;-6.288;2023-01-29T15:49:30;101946.47;;;21.36
74750;BMP280;63269;53.330;-6.288;2023-01-29T15:52:05;101946.47;;;21.36
74750;BMP280;63269;53.330;-6.288;2023-01-29T15:54:32;101944.53;;;21.36
74750;BMP280;63269;53.330;-6.288;2023-01-29T15:56:59;101957.88;;;21.36
74750;BMP280;63269;53.330;-6.288;2023-01-29T15:59:29;101951.72;;;21.39
74750;BMP280;63269;53.330;-6.288;2023-01-29T16:01:55;101951.72;;;21.39
74750;BMP280;63269;53.330;-6.288;2023-01-29T16:04:23;101949.06;;;21.39
74750;BMP280;63269;53.330;-6.288;2023-01-29T16:06:52;101947.16;;;21.40
74750;BMP280;63269;53.330;-6.288;2023-01-29T16:09:21;101947.16;;;21.40
74750;BMP280;63269;53.330;-6.288;2023-01-29T16:11:48;101941.44;;;21.38
74750;BMP280;63269;53.330;-6.288;2023-01-29T16:14:16;101943.72;;;21.39
74750;BMP280;63269;53.330;-6.288;2023-01-29T16:16:43;101943.72;;;21.39
74750;BMP280;63269;53.330;-6.288;2023-01-29T16:19:23;101949.44;;;21.38
74750;BMP280;63269;53.330;-6.288;2023-01-29T16:21:58;101949.44;;;21.38